createdAt,value
2023-01-26T00:01:15.063Z,34.95
2023-01-26T00:03:41.995Z,34.47
2023-01-26T00:06:11.500Z,32.63
2023-01-26T00:08:43.176Z,35.30
2023-01-26T00:11:12.632Z,34.53
2023-01-26T00:13:39.541Z,31.65
2023-01-26T00:16:11.475Z,34.67
2023-01-26T00:18:39.597Z,33.90
2023-01-26T00:21:07.659Z,37.35
2023-01-26T00:23:35.558Z,33.20
2023-01-26T00:26:02.881Z,39.03
2023-01-26T00:28:29.637Z,36.08
2023-01-26T00:31:06.866Z,36.00
2023-01-26T00:33:33.537Z,33.13
2023-01-26T00:36:00.359Z,35.83
2023-01-26T00:38:26.931Z,33.88
2023-01-26T00:40:53.779Z,35.85
2023-01-26T00:43:20.334Z,39.13
2023-01-26T00:45:46.924Z,34.15
2023-01-26T00:48:13.549Z,38.28
2023-01-26T00:50:40.155Z,30.80
2023-01-26T00:53:07.001Z,26.00
2023-01-26T00:55:33.620Z,26.08
2023-01-26T00:58:07.645Z,30.17
2023-01-26T01:00:35.910Z,31.10
2023-01-26T01:03:03.327Z,27.07
2023-01-26T01:05:31.591Z,29.55
2023-01-26T01:07:58.451Z,31.60
2023-01-26T01:10:27.331Z,30.50
2023-01-26T01:12:54.182Z,32.05
2023-01-26T01:15:20.794Z,30.90
2023-01-26T01:17:47.430Z,30.60
2023-01-26T01:20:14.236Z,34.70
2023-01-26T01:22:40.782Z,32.37
2023-01-26T01:25:07.786Z,32.03
2023-01-26T01:27:34.369Z,30.15
2023-01-26T01:30:00.915Z,30.83
2023-01-26T01:32:27.394Z,25.30
2023-01-26T01:34:53.894Z,28.83
2023-01-26T01:37:20.476Z,28.27
2023-01-26T01:39:49.080Z,29.10
2023-01-26T01:42:15.668Z,20.17
2023-01-26T01:44:43.408Z,27.88
2023-01-26T01:47:19.881Z,27.73
2023-01-26T01:49:49.434Z,22.85
2023-01-26T01:52:28.317Z,27.58
2023-01-26T01:55:07.312Z,26.80
2023-01-26T01:57:47.323Z,21.27
2023-01-26T02:00:20.163Z,22.88
2023-01-26T02:03:10.928Z,24.42
2023-01-26T02:05:55.783Z,17.85
2023-01-26T02:08:31.188Z,19.80
2023-01-26T02:14:34.621Z,18.63
2023-01-26T02:17:01.247Z,18.98
2023-01-26T02:19:53.428Z,21.13
2023-01-26T02:22:37.535Z,18.93
2023-01-26T02:25:12.780Z,17.58
2023-01-26T02:27:40.140Z,18.45
2023-01-26T02:30:07.744Z,16.37
2023-01-26T02:32:34.454Z,15.23
2023-01-26T02:35:19.857Z,14.75
2023-01-26T02:37:46.476Z,14.25
2023-01-26T02:40:38.114Z,13.80
2023-01-26T02:43:04.768Z,12.33
2023-01-26T02:45:32.734Z,12.80
2023-01-26T02:48:02.431Z,12.27
2023-01-26T02:50:28.931Z,12.55
2023-01-26T02:52:55.424Z,12.93
2023-01-26T02:55:22.063Z,13.10
2023-01-26T02:57:50.854Z,10.63
2023-01-26T03:00:20.376Z,10.20
2023-01-26T03:02:48.093Z,11.73
2023-01-26T03:05:14.766Z,10.88
2023-01-26T03:07:41.504Z,11.18
2023-01-26T03:10:09.390Z,11.13
2023-01-26T03:12:36.272Z,11.23
2023-01-26T03:15:21.679Z,10.00
2023-01-26T03:17:48.194Z,12.45
2023-01-26T03:20:33.355Z,10.43
2023-01-26T03:23:18.613Z,11.57
2023-01-26T03:26:03.955Z,10.10
2023-01-26T03:28:30.556Z,10.38
2023-01-26T03:30:58.310Z,9.75
2023-01-26T03:33:24.944Z,10.00
2023-01-26T03:35:54.488Z,8.53
2023-01-26T03:38:21.075Z,11.40
2023-01-26T03:41:06.219Z,8.73
2023-01-26T03:43:51.531Z,7.65
2023-01-26T03:46:37.039Z,10.97
2023-01-26T03:49:22.277Z,9.23
2023-01-26T03:52:07.517Z,8.53
2023-01-26T03:54:52.793Z,7.68
2023-01-26T03:57:19.278Z,10.03
2023-01-26T03:59:45.841Z,6.77
2023-01-26T04:02:31.482Z,9.48
2023-01-26T04:05:16.793Z,8.87
2023-01-26T04:08:02.130Z,8.43
2023-01-26T04:10:28.976Z,8.60
2023-01-26T04:13:14.282Z,8.70
2023-01-26T04:15:59.608Z,7.43
2023-01-26T04:18:44.922Z,9.50
2023-01-26T04:21:27.063Z,7.30
2023-01-26T04:23:56.442Z,10.00
2023-01-26T04:26:24.578Z,8.33
2023-01-26T04:28:51.118Z,8.97
2023-01-26T04:31:17.896Z,9.23
2023-01-26T04:33:44.442Z,11.67
2023-01-26T04:36:11.054Z,10.32
2023-01-26T04:38:37.587Z,9.03
2023-01-26T04:41:04.330Z,10.93
2023-01-26T04:43:30.810Z,10.68
2023-01-26T04:46:07.276Z,9.60
2023-01-26T04:48:34.893Z,10.15
2023-01-26T04:51:04.346Z,10.53
2023-01-26T04:53:32.749Z,8.85
2023-01-26T04:55:59.696Z,9.00
2023-01-26T04:58:26.604Z,11.27
2023-01-26T05:00:54.959Z,10.60
2023-01-26T05:03:22.334Z,9.93
2023-01-26T05:05:50.328Z,10.40
2023-01-26T05:08:18.451Z,10.52
2023-01-26T05:10:46.406Z,11.00
2023-01-26T05:13:13.311Z,11.38
2023-01-26T05:15:40.300Z,9.50
2023-01-26T05:18:07.374Z,9.37
2023-01-26T05:20:33.955Z,9.40
2023-01-26T05:23:00.520Z,11.00
2023-01-26T05:25:27.226Z,9.52
2023-01-26T05:27:53.877Z,9.98
2023-01-26T05:30:20.500Z,10.02
2023-01-26T05:32:47.037Z,11.50
2023-01-26T05:35:13.572Z,10.25
2023-01-26T05:37:42.261Z,11.25
2023-01-26T05:40:12.704Z,10.73
2023-01-26T05:42:39.451Z,10.23
2023-01-26T05:45:06.771Z,10.27
2023-01-26T05:47:33.350Z,9.85
2023-01-26T05:49:59.833Z,9.40
2023-01-26T05:52:26.593Z,14.85
2023-01-26T05:54:53.188Z,9.38
2023-01-26T05:57:19.771Z,9.67
2023-01-26T05:59:46.342Z,9.87
2023-01-26T06:02:13.000Z,10.97
2023-01-26T06:04:39.864Z,25.87
2023-01-26T06:07:06.691Z,11.80
2023-01-26T06:09:33.455Z,10.00
2023-01-26T06:12:00.539Z,12.88
2023-01-26T06:14:27.149Z,9.90
2023-01-26T06:16:54.685Z,11.05
2023-01-26T06:19:21.365Z,11.10
2023-01-26T06:21:47.935Z,11.13
2023-01-26T06:24:14.652Z,13.50
2023-01-26T06:26:41.276Z,9.55
2023-01-26T06:29:08.940Z,8.75
2023-01-26T06:31:37.101Z,9.40
2023-01-26T06:34:05.571Z,6.30
2023-01-26T06:36:32.214Z,7.85
2023-01-26T06:39:00.765Z,8.98
2023-01-26T06:41:27.637Z,10.52
2023-01-26T06:43:54.336Z,9.03
2023-01-26T06:46:21.141Z,10.60
2023-01-26T06:48:47.840Z,9.07
2023-01-26T06:51:20.437Z,9.57
2023-01-26T06:53:55.071Z,10.67
2023-01-26T06:56:22.574Z,26.83
2023-01-26T06:58:49.250Z,12.63
2023-01-26T07:01:22.105Z,13.50
2023-01-26T07:03:50.126Z,12.37
2023-01-26T07:06:17.139Z,9.93
2023-01-26T07:08:44.168Z,10.77
2023-01-26T07:11:12.356Z,8.67
2023-01-26T07:13:39.748Z,9.50
2023-01-26T07:16:08.729Z,10.43
2023-01-26T07:18:35.354Z,8.90
2023-01-26T07:21:06.928Z,8.97
2023-01-26T07:23:34.997Z,9.73
2023-01-26T07:26:02.387Z,8.83
2023-01-26T07:28:30.467Z,9.00
2023-01-26T07:31:05.202Z,7.77
2023-01-26T07:33:33.288Z,9.10
2023-01-26T07:36:00.674Z,8.63
2023-01-26T07:38:29.032Z,11.80
2023-01-26T07:40:55.959Z,10.27
2023-01-26T07:43:22.599Z,9.05
2023-01-26T07:45:51.539Z,7.47
2023-01-26T07:48:18.800Z,10.18
2023-01-26T07:50:47.755Z,9.90
2023-01-26T07:53:15.481Z,10.63
2023-01-26T07:55:45.088Z,7.90
2023-01-26T07:58:12.722Z,9.10
2023-01-26T08:00:39.852Z,8.83
2023-01-26T08:03:06.542Z,8.87
2023-01-26T08:05:33.338Z,8.70
2023-01-26T08:08:00.599Z,8.90
2023-01-26T08:10:31.454Z,8.87
2023-01-26T08:13:01.533Z,9.77
2023-01-26T08:15:29.057Z,8.90
2023-01-26T08:17:55.881Z,8.67
2023-01-26T08:20:23.045Z,7.57
2023-01-26T08:22:49.573Z,6.87
2023-01-26T08:25:16.222Z,10.83
2023-01-26T08:27:42.777Z,15.23
2023-01-26T08:30:10.314Z,14.00
2023-01-26T08:32:37.040Z,9.57
2023-01-26T08:35:03.814Z,10.30
2023-01-26T08:37:30.423Z,12.23
2023-01-26T08:39:56.906Z,12.57
2023-01-26T08:42:23.525Z,14.50
2023-01-26T08:44:50.130Z,13.40
2023-01-26T08:47:16.664Z,20.77
2023-01-26T08:49:43.287Z,12.63
2023-01-26T08:52:09.798Z,13.45
2023-01-26T08:54:36.406Z,11.57
2023-01-26T08:57:02.961Z,10.85
2023-01-26T08:59:29.483Z,14.38
2023-01-26T09:01:56.034Z,24.67
2023-01-26T09:04:22.794Z,12.27
2023-01-26T09:06:49.307Z,9.05
2023-01-26T09:09:15.830Z,12.32
2023-01-26T09:11:42.360Z,14.37
2023-01-26T09:14:09.057Z,12.85
2023-01-26T09:16:35.667Z,12.77
2023-01-26T09:19:02.310Z,9.60
2023-01-26T09:21:28.860Z,10.40
2023-01-26T09:23:57.109Z,12.40
2023-01-26T09:26:24.049Z,10.70
2023-01-26T09:28:52.117Z,14.52
2023-01-26T09:31:18.995Z,11.85
2023-01-26T09:33:45.909Z,11.53
2023-01-26T09:36:12.743Z,11.15
2023-01-26T09:38:40.064Z,12.10
2023-01-26T09:41:28.416Z,12.38
2023-01-26T09:44:02.043Z,12.73
2023-01-26T09:46:52.543Z,12.30
2023-01-26T09:49:26.054Z,12.85
2023-01-26T09:52:06.277Z,12.63
2023-01-26T09:54:49.741Z,13.85
2023-01-26T09:57:20.584Z,12.13
2023-01-26T10:00:12.285Z,11.90
2023-01-26T10:03:10.081Z,13.43
2023-01-26T10:05:50.298Z,14.17
2023-01-26T10:08:19.625Z,13.52
2023-01-26T10:10:50.850Z,11.83
2023-01-26T10:13:18.651Z,12.70
2023-01-26T10:15:57.709Z,13.73
2023-01-26T10:20:56.426Z,13.20
2023-01-26T10:23:29.524Z,14.75
2023-01-26T10:26:13.078Z,12.27
2023-01-26T10:28:42.314Z,14.07
2023-01-26T10:33:49.570Z,10.07
2023-01-26T10:36:16.267Z,12.37
2023-01-26T10:38:44.701Z,13.32
2023-01-26T10:41:14.025Z,9.27
2023-01-26T10:43:42.483Z,14.90
2023-01-26T10:46:29.389Z,16.17
2023-01-26T10:48:59.939Z,12.33
2023-01-26T10:51:32.248Z,13.27
2023-01-26T10:54:17.435Z,11.80
2023-01-26T10:56:55.804Z,11.13
2023-01-26T10:59:31.159Z,9.20
2023-01-26T11:02:01.999Z,9.90
2023-01-26T11:04:29.065Z,13.50
2023-01-26T11:06:56.053Z,11.93
2023-01-26T11:09:28.603Z,12.07
2023-01-26T11:11:56.334Z,10.37
2023-01-26T11:14:23.399Z,12.38
2023-01-26T11:17:04.629Z,11.85
2023-01-26T11:20:11.465Z,13.00
2023-01-26T11:22:50.491Z,14.05
2023-01-26T11:25:30.353Z,10.80
2023-01-26T11:28:33.331Z,10.38
2023-01-26T11:31:40.485Z,15.23
2023-01-26T11:34:27.426Z,10.48
2023-01-26T11:37:38.111Z,17.83
2023-01-26T11:40:31.969Z,10.88
2023-01-26T11:43:13.570Z,10.88
2023-01-26T11:45:58.751Z,10.48
2023-01-26T11:48:48.331Z,10.75
2023-01-26T11:51:40.532Z,10.93
2023-01-26T11:54:58.078Z,14.63
2023-01-26T11:58:05.050Z,15.82
2023-01-26T12:00:42.785Z,12.95
2023-01-26T12:03:23.275Z,13.95
2023-01-26T12:05:58.292Z,13.18
2023-01-26T12:08:54.039Z,12.82
2023-01-26T12:11:42.227Z,15.77
2023-01-26T12:14:41.735Z,13.60
2023-01-26T12:17:47.039Z,11.63
2023-01-26T12:20:35.144Z,13.15
2023-01-26T12:23:25.475Z,12.88
2023-01-26T12:26:05.505Z,11.65
2023-01-26T12:28:39.650Z,15.30
2023-01-26T12:31:25.156Z,12.48
2023-01-26T12:33:55.520Z,13.98
2023-01-26T12:36:55.981Z,12.35
2023-01-26T12:39:45.104Z,14.43
2023-01-26T12:42:50.884Z,14.05
2023-01-26T12:45:32.555Z,14.07
2023-01-26T12:48:21.003Z,14.48
2023-01-26T12:51:01.592Z,14.88
2023-01-26T12:53:34.504Z,13.27
2023-01-26T12:56:21.332Z,41.92
2023-01-26T12:58:50.257Z,60.20
2023-01-26T13:01:20.702Z,65.75
2023-01-26T13:03:53.594Z,41.47
2023-01-26T13:06:23.463Z,32.78
2023-01-26T13:09:00.491Z,35.13
2023-01-26T13:11:53.245Z,21.58
2023-01-26T13:14:37.280Z,19.30
2023-01-26T13:17:16.208Z,19.25
2023-01-26T13:19:42.682Z,87.72
2023-01-26T13:22:18.307Z,35.28
2023-01-26T13:24:58.627Z,22.45
2023-01-26T13:27:57.824Z,25.40
2023-01-26T13:30:27.191Z,33.47
2023-01-26T13:32:59.469Z,22.40
2023-01-26T13:35:27.425Z,27.92
2023-01-26T13:38:02.779Z,20.48
2023-01-26T13:40:40.069Z,25.42
2023-01-26T13:43:26.274Z,23.95
2023-01-26T13:46:21.314Z,18.38
2023-01-26T13:48:52.663Z,21.75
2023-01-26T13:51:30.617Z,20.50
2023-01-26T13:53:58.990Z,20.15
2023-01-26T13:56:38.820Z,31.50
2023-01-26T13:59:05.313Z,21.52
2023-01-26T14:01:32.167Z,22.05
2023-01-26T14:04:12.089Z,19.48
2023-01-26T14:06:38.778Z,19.85
2023-01-26T14:09:11.295Z,21.40
2023-01-26T14:11:39.061Z,21.42
2023-01-26T14:14:06.463Z,27.30
2023-01-26T14:16:37.529Z,19.15
2023-01-26T14:19:16.998Z,20.73
2023-01-26T14:22:12.589Z,23.83
2023-01-26T14:24:41.073Z,18.30
2023-01-26T14:27:25.401Z,15.50
2023-01-26T14:29:52.546Z,32.13
2023-01-26T14:32:19.169Z,20.70
2023-01-26T14:34:58.263Z,23.23
2023-01-26T14:37:26.368Z,22.15
2023-01-26T14:40:14.997Z,22.13
2023-01-26T14:42:42.729Z,21.52
2023-01-26T14:45:13.600Z,20.50
2023-01-26T14:47:41.883Z,23.30
2023-01-26T14:50:32.112Z,21.93
2023-01-26T14:53:01.460Z,23.40
2023-01-26T14:55:36.174Z,21.67
2023-01-26T14:58:13.037Z,28.63
2023-01-26T15:00:39.716Z,26.27
2023-01-26T15:03:19.125Z,20.30
2023-01-26T15:05:45.837Z,26.00
2023-01-26T15:08:22.018Z,21.35
2023-01-26T15:11:16.084Z,22.17
2023-01-26T15:13:44.936Z,23.08
2023-01-26T15:16:17.428Z,22.70
2023-01-26T15:18:44.835Z,27.25
2023-01-26T15:21:13.531Z,26.80
2023-01-26T15:23:45.934Z,25.33
2023-01-26T15:26:31.373Z,23.27
2023-01-26T15:29:04.089Z,24.75
2023-01-26T15:31:35.160Z,28.48
2023-01-26T15:34:06.143Z,25.42
2023-01-26T15:36:51.214Z,26.25
2023-01-26T15:39:19.344Z,29.98
2023-01-26T15:41:59.425Z,27.27
2023-01-26T15:44:26.099Z,28.58
2023-01-26T15:46:52.721Z,26.15
2023-01-26T15:49:19.968Z,26.25
2023-01-26T15:51:46.540Z,38.90
2023-01-26T15:54:13.197Z,35.50
2023-01-26T15:56:39.786Z,28.35
2023-01-26T15:59:06.444Z,23.35
2023-01-26T16:01:33.306Z,26.63
2023-01-26T16:03:59.889Z,28.00
2023-01-26T16:06:29.365Z,27.27
2023-01-26T16:08:56.862Z,28.83
2023-01-26T16:11:29.245Z,29.58
2023-01-26T16:14:03.237Z,30.13
2023-01-26T16:16:31.929Z,30.50
2023-01-26T16:18:58.695Z,30.23
2023-01-26T16:21:33.253Z,27.77
2023-01-26T16:24:03.679Z,34.20
2023-01-26T16:26:31.539Z,29.70
2023-01-26T16:28:58.518Z,26.83
2023-01-26T16:31:31.265Z,29.98
2023-01-26T16:33:58.844Z,29.25
2023-01-26T16:36:25.480Z,30.40
2023-01-26T16:38:52.027Z,31.58
2023-01-26T16:41:24.886Z,29.88
2023-01-26T16:43:54.571Z,30.70
2023-01-26T16:46:21.577Z,31.13
2023-01-26T16:48:48.131Z,30.98
2023-01-26T16:51:18.556Z,35.88
2023-01-26T16:53:45.552Z,32.60
2023-01-26T16:56:13.331Z,34.53
2023-01-26T16:58:40.223Z,28.70
2023-01-26T17:01:10.265Z,28.05
2023-01-26T17:03:36.777Z,31.38
2023-01-26T17:06:03.456Z,32.22
2023-01-26T17:08:30.031Z,37.50
2023-01-26T17:11:02.499Z,41.33
2023-01-26T17:13:29.629Z,36.28
2023-01-26T17:15:57.083Z,45.38
2023-01-26T17:18:24.191Z,33.35
2023-01-26T17:20:50.685Z,38.20
2023-01-26T17:23:17.178Z,30.80
2023-01-26T17:25:43.763Z,33.45
2023-01-26T17:28:10.384Z,30.20
2023-01-26T17:30:37.635Z,36.37
2023-01-26T17:33:04.249Z,33.78
2023-01-26T17:35:30.904Z,34.20
2023-01-26T17:37:57.519Z,38.22
2023-01-26T17:40:24.163Z,33.65
2023-01-26T17:42:50.912Z,34.53
2023-01-26T17:45:17.595Z,34.15
2023-01-26T17:47:44.130Z,40.10
2023-01-26T17:50:10.999Z,37.70
2023-01-26T17:52:37.619Z,35.10
2023-01-26T17:55:06.182Z,43.50
2023-01-26T17:57:33.433Z,36.00
2023-01-26T18:00:00.043Z,31.98
2023-01-26T18:02:26.725Z,37.05
2023-01-26T18:04:53.390Z,33.58
2023-01-26T18:07:20.084Z,36.53
2023-01-26T18:09:46.648Z,34.08
2023-01-26T18:12:13.167Z,37.47
2023-01-26T18:14:39.755Z,33.17
2023-01-26T18:17:06.270Z,35.85
2023-01-26T18:19:33.080Z,39.25
2023-01-26T18:21:59.737Z,36.87
2023-01-26T18:24:26.407Z,36.30
2023-01-26T18:26:53.291Z,35.17
2023-01-26T18:29:19.840Z,38.50
2023-01-26T18:31:47.857Z,37.13
2023-01-26T18:34:15.572Z,36.95
2023-01-26T18:36:42.221Z,36.70
2023-01-26T18:39:12.921Z,36.83
2023-01-26T18:41:40.693Z,36.15
2023-01-26T18:44:08.363Z,30.13
2023-01-26T18:46:35.314Z,34.60
2023-01-26T18:49:03.344Z,36.72
2023-01-26T18:51:32.441Z,34.22
2023-01-26T18:53:59.299Z,34.22
2023-01-26T18:56:26.342Z,39.47
2023-01-26T18:58:53.779Z,45.72
2023-01-26T19:01:21.300Z,50.35
2023-01-26T19:03:51.056Z,40.55
2023-01-26T19:06:20.883Z,39.90
2023-01-26T19:08:58.423Z,38.70
2023-01-26T19:11:38.552Z,40.97
2023-01-26T19:14:06.517Z,35.38
2023-01-26T19:16:33.817Z,37.28
2023-01-26T19:19:00.472Z,34.47
2023-01-26T19:21:27.459Z,32.42
2023-01-26T19:23:56.418Z,32.97
2023-01-26T19:26:26.135Z,32.55
2023-01-26T19:28:54.133Z,46.85
2023-01-26T19:31:21.843Z,33.65
2023-01-26T19:33:56.659Z,34.22
2023-01-26T19:36:24.348Z,35.40
2023-01-26T19:38:51.106Z,32.97
2023-01-26T19:41:18.587Z,29.50
2023-01-26T19:43:45.280Z,32.00
2023-01-26T19:46:13.772Z,32.55
2023-01-26T19:48:40.594Z,32.85
2023-01-26T19:51:14.892Z,33.28
2023-01-26T19:53:44.864Z,31.13
2023-01-26T19:56:20.289Z,37.67
2023-01-26T19:58:51.112Z,29.80
2023-01-26T20:01:17.916Z,28.08
2023-01-26T20:03:49.469Z,30.30
2023-01-26T20:06:17.486Z,36.15
2023-01-26T20:08:44.060Z,29.92
2023-01-26T20:11:10.809Z,35.55
2023-01-26T20:13:37.527Z,33.60
2023-01-26T20:16:06.763Z,31.88
2023-01-26T20:18:33.907Z,33.35
2023-01-26T20:21:01.027Z,29.05
2023-01-26T20:23:27.920Z,31.10
2023-01-26T20:26:02.370Z,32.50
2023-01-26T20:28:29.271Z,29.23
2023-01-26T20:30:59.562Z,25.77
2023-01-26T20:33:26.140Z,32.27
2023-01-26T20:35:52.699Z,37.85
2023-01-26T20:38:19.299Z,32.30
2023-01-26T20:40:45.865Z,33.38
2023-01-26T20:43:12.404Z,30.65
2023-01-26T20:45:42.101Z,34.07
2023-01-26T20:48:08.737Z,34.83
2023-01-26T20:50:39.917Z,64.93
2023-01-26T20:53:09.883Z,37.73
2023-01-26T20:55:36.509Z,38.75
2023-01-26T20:58:06.759Z,36.67
2023-01-26T21:00:33.576Z,36.47
2023-01-26T21:03:00.140Z,35.38
2023-01-26T21:05:26.797Z,36.63
2023-01-26T21:07:53.370Z,31.83
2023-01-26T21:10:19.992Z,31.88
2023-01-26T21:12:46.582Z,29.20
2023-01-26T21:15:13.089Z,28.95
2023-01-26T21:17:39.685Z,27.17
2023-01-26T21:20:08.039Z,31.88
2023-01-26T21:22:34.661Z,36.05
2023-01-26T21:25:01.183Z,33.40
2023-01-26T21:27:27.717Z,36.08
2023-01-26T21:29:54.232Z,36.17
2023-01-26T21:32:20.827Z,31.20
2023-01-26T21:34:47.417Z,32.20
2023-01-26T21:37:13.945Z,35.08
2023-01-26T21:39:40.424Z,35.30
2023-01-26T21:42:07.065Z,31.08
2023-01-26T21:44:53.638Z,37.95
2023-01-26T21:47:20.177Z,39.85
2023-01-26T21:49:47.634Z,34.38
2023-01-26T21:52:32.811Z,38.17
2023-01-26T21:54:59.533Z,34.10
2023-01-26T21:57:44.667Z,35.63
2023-01-26T22:00:12.006Z,34.25
2023-01-26T22:02:38.959Z,36.33
2023-01-26T22:05:05.898Z,36.45
2023-01-26T22:07:32.425Z,33.60
2023-01-26T22:09:58.929Z,37.90
2023-01-26T22:12:25.561Z,33.05
2023-01-26T22:14:52.526Z,37.05
2023-01-26T22:17:19.095Z,33.25
2023-01-26T22:19:45.617Z,35.70
2023-01-26T22:22:12.496Z,38.30
2023-01-26T22:24:39.047Z,34.70
2023-01-26T22:27:08.111Z,36.88
2023-01-26T22:29:34.748Z,35.35
2023-01-26T22:32:02.569Z,39.13
2023-01-26T22:34:29.256Z,39.67
2023-01-26T22:36:55.795Z,34.65
2023-01-26T22:39:22.554Z,37.70
2023-01-26T22:41:49.115Z,35.08
2023-01-26T22:44:15.654Z,39.35
2023-01-26T22:46:42.244Z,34.97
2023-01-26T22:49:10.091Z,37.38
2023-01-26T22:51:37.292Z,33.10
2023-01-26T22:54:04.707Z,35.00
2023-01-26T22:56:31.283Z,37.70
2023-01-26T22:59:00.415Z,31.35
2023-01-26T23:01:29.429Z,33.58
2023-01-26T23:03:56.612Z,33.53
2023-01-26T23:06:23.433Z,34.40
2023-01-26T23:08:50.119Z,29.58
2023-01-26T23:11:19.761Z,32.67
2023-01-26T23:13:47.929Z,29.83
2023-01-26T23:16:14.879Z,30.65
2023-01-26T23:18:41.744Z,28.35
2023-01-26T23:21:08.720Z,36.38
2023-01-26T23:23:35.609Z,27.85
2023-01-26T23:26:03.311Z,35.42
2023-01-26T23:28:35.657Z,27.35
2023-01-26T23:31:02.993Z,30.65
2023-01-26T23:33:31.551Z,28.42
2023-01-26T23:35:58.627Z,34.90
2023-01-26T23:38:26.825Z,32.20
2023-01-26T23:40:53.720Z,29.70
2023-01-26T23:43:21.195Z,29.13
2023-01-26T23:45:49.583Z,33.38
2023-01-26T23:48:17.032Z,31.63
2023-01-26T23:50:43.576Z,29.58
2023-01-26T23:53:10.237Z,34.00
2023-01-26T23:55:41.172Z,36.63
2023-01-26T23:58:08.214Z,31.50
